Time;durP1;ratioP1;P1;durP2;ratioP2;P2;SDS_P1;SDS_P2;PMS_P1;PMS_P2;Temp;Humidity;BMP_temperature;BMP_pressure;BME280_temperature;BME280_humidity;BME280_pressure;Samples;Min_cycle;Max_cycle;Signal;HPM_P1;HPM_P2
2024/04/26 00:02:01;;;;;;;2.55;2.03;;;;;;;;;;5388794;26;20004;-58
2024/04/26 00:04:26;;;;;;;2.15;1.60;;;;;;;;;;5402774;26;20815;-58
2024/04/26 00:06:51;;;;;;;2.05;1.70;;;;;;;;;;5400629;26;19996;-58
2024/04/26 00:09:17;;;;;;;2.65;1.80;;;;;;;;;;5388336;26;20036;-59
2024/04/26 00:11:42;;;;;;;2.35;1.90;;;;;;;;;;5395606;26;20000;-59
2024/04/26 00:14:07;;;;;;;2.30;1.85;;;;;;;;;;5396320;26;20010;-60
2024/04/26 00:16:39;;;;;;;2.20;1.85;;;;;;;;;;5404488;26;19999;-61
2024/04/26 00:19:05;;;;;;;2.38;1.60;;;;;;;;;;5406466;26;20307;-59
2024/04/26 00:21:30;;;;;;;2.60;1.80;;;;;;;;;;5394831;26;20014;-59
2024/04/26 00:23:55;;;;;;;2.10;1.80;;;;;;;;;;5401779;26;20032;-58
2024/04/26 00:26:21;;;;;;;2.08;1.70;;;;;;;;;;5411849;26;20003;-58
2024/04/26 00:28:46;;;;;;;2.53;1.70;;;;;;;;;;5386620;26;20004;-59
2024/04/26 00:31:11;;;;;;;2.45;1.90;;;;;;;;;;5402028;26;20005;-59
2024/04/26 00:33:38;;;;;;;2.33;1.95;;;;;;;;;;5393313;26;20004;-60
2024/04/26 00:36:04;;;;;;;3.55;2.05;;;;;;;;;;5408605;26;20004;-59
2024/04/26 00:38:29;;;;;;;2.38;1.90;;;;;;;;;;5392708;26;20442;-59
2024/04/26 00:40:54;;;;;;;2.83;2.10;;;;;;;;;;5396895;26;20004;-60
2024/04/26 00:43:20;;;;;;;2.00;1.77;;;;;;;;;;5405363;26;20004;-59
2024/04/26 00:45:45;;;;;;;2.65;1.90;;;;;;;;;;5406053;26;20004;-59
2024/04/26 00:48:10;;;;;;;2.90;1.90;;;;;;;;;;5392067;26;20044;-58
2024/04/26 00:50:35;;;;;;;2.67;1.80;;;;;;;;;;5382045;26;20433;-59
2024/04/26 00:53:01;;;;;;;2.40;2.00;;;;;;;;;;5401706;26;20000;-59
2024/04/26 00:55:26;;;;;;;2.38;2.00;;;;;;;;;;5407271;26;19999;-59
2024/04/26 00:57:53;;;;;;;2.40;2.05;;;;;;;;;;5390732;26;20010;-59
2024/04/26 01:00:18;;;;;;;2.88;2.20;;;;;;;;;;5392343;26;20028;-59
2024/04/26 01:02:43;;;;;;;2.75;1.95;;;;;;;;;;5392153;26;20004;-58
2024/04/26 01:05:09;;;;;;;2.35;1.98;;;;;;;;;;5407257;26;20016;-59
2024/04/26 01:07:34;;;;;;;2.72;2.20;;;;;;;;;;5400536;26;20032;-59
2024/04/26 01:09:59;;;;;;;2.92;2.28;;;;;;;;;;5409640;26;20019;-57
2024/04/26 01:12:24;;;;;;;3.08;2.15;;;;;;;;;;5402204;26;19999;-57
2024/04/26 01:14:50;;;;;;;3.03;2.13;;;;;;;;;;5410259;26;20009;-57
2024/04/26 01:17:15;;;;;;;2.75;2.08;;;;;;;;;;5405333;26;20000;-58
2024/04/26 01:19:40;;;;;;;2.60;2.30;;;;;;;;;;5386475;26;20011;-58
2024/04/26 01:22:16;;;;;;;2.33;1.83;;;;;;;;;;5402378;26;20017;-58
2024/04/26 01:24:41;;;;;;;2.25;1.85;;;;;;;;;;5400345;26;20337;-57
2024/04/26 01:27:06;;;;;;;2.30;2.03;;;;;;;;;;5395511;26;19999;-57
2024/04/26 01:29:31;;;;;;;2.33;2.13;;;;;;;;;;5399066;26;20291;-57
2024/04/26 01:31:57;;;;;;;2.40;2.17;;;;;;;;;;5387781;26;19999;-58
2024/04/26 01:34:22;;;;;;;2.75;2.03;;;;;;;;;;5387940;26;20000;-58
2024/04/26 01:36:47;;;;;;;2.72;1.90;;;;;;;;;;5406584;26;20007;-57
2024/04/26 01:39:13;;;;;;;2.70;2.13;;;;;;;;;;5409066;26;20036;-57
2024/04/26 01:41:38;;;;;;;2.53;2.00;;;;;;;;;;5389710;26;20008;-58
2024/04/26 01:44:03;;;;;;;2.75;2.25;;;;;;;;;;5403214;26;20334;-57
2024/04/26 01:46:29;;;;;;;2.90;2.10;;;;;;;;;;5407450;26;20010;-58
2024/04/26 01:48:54;;;;;;;2.65;2.20;;;;;;;;;;5409865;26;20075;-58
2024/04/26 01:51:19;;;;;;;2.33;1.98;;;;;;;;;;5387735;26;20007;-57
2024/04/26 01:53:44;;;;;;;2.25;1.92;;;;;;;;;;5389381;26;19996;-58
2024/04/26 01:56:10;;;;;;;2.60;2.00;;;;;;;;;;5396556;26;19992;-58
2024/04/26 01:58:35;;;;;;;2.30;2.10;;;;;;;;;;5410056;26;20372;-58
2024/04/26 02:01:00;;;;;;;2.78;2.30;;;;;;;;;;5404427;26;20004;-58
2024/04/26 02:03:26;;;;;;;3.03;2.42;;;;;;;;;;5398642;26;19995;-59
2024/04/26 02:05:51;;;;;;;3.20;2.22;;;;;;;;;;5408459;26;20007;-59
2024/04/26 02:08:17;;;;;;;2.58;2.10;;;;;;;;;;5388975;26;20054;-59
2024/04/26 02:10:42;;;;;;;3.03;2.38;;;;;;;;;;5389753;26;20005;-59
2024/04/26 02:13:07;;;;;;;2.65;2.38;;;;;;;;;;5390557;26;20350;-59
2024/04/26 02:15:33;;;;;;;3.10;2.20;;;;;;;;;;5386164;26;20879;-58
2024/04/26 02:17:58;;;;;;;2.63;2.00;;;;;;;;;;5406774;26;20011;-59
2024/04/26 02:20:23;;;;;;;2.60;2.25;;;;;;;;;;5393337;26;20000;-58
2024/04/26 02:22:49;;;;;;;2.35;2.05;;;;;;;;;;5395603;26;20039;-58
2024/04/26 02:25:14;;;;;;;3.15;2.28;;;;;;;;;;5409182;26;19995;-58
2024/04/26 02:27:39;;;;;;;2.67;1.90;;;;;;;;;;5409956;26;19995;-58
2024/04/26 02:30:05;;;;;;;2.72;2.25;;;;;;;;;;5401594;26;20127;-58
2024/04/26 02:32:30;;;;;;;3.10;2.28;;;;;;;;;;5393006;26;20064;-58
2024/04/26 02:34:55;;;;;;;2.55;2.13;;;;;;;;;;5380199;26;20019;-58
2024/04/26 02:37:20;;;;;;;2.85;2.28;;;;;;;;;;5394593;26;19996;-58
2024/04/26 02:39:46;;;;;;;3.88;2.45;;;;;;;;;;5398817;26;20031;-60
2024/04/26 02:42:11;;;;;;;2.58;2.03;;;;;;;;;;5381734;26;20011;-58
2024/04/26 02:44:36;;;;;;;2.83;2.15;;;;;;;;;;5396072;26;20008;-59
2024/04/26 02:47:02;;;;;;;2.72;2.13;;;;;;;;;;5403375;26;19992;-57
2024/04/26 02:49:27;;;;;;;2.50;2.15;;;;;;;;;;5384718;26;20006;-58
2024/04/26 02:51:53;;;;;;;2.67;2.00;;;;;;;;;;5406987;26;19999;-58
2024/04/26 02:54:18;;;;;;;2.80;2.03;;;;;;;;;;5384219;26;19999;-58
2024/04/26 02:56:43;;;;;;;2.50;2.20;;;;;;;;;;5396078;26;20003;-58
2024/04/26 02:59:09;;;;;;;2.85;2.28;;;;;;;;;;5382056;26;20019;-59
2024/04/26 03:01:34;;;;;;;2.67;2.28;;;;;;;;;;5404181;26;20000;-58
2024/04/26 03:03:59;;;;;;;2.97;2.33;;;;;;;;;;5406065;26;20000;-58
2024/04/26 03:06:25;;;;;;;2.83;2.50;;;;;;;;;;5398029;26;20072;-59
2024/04/26 03:08:50;;;;;;;2.47;2.13;;;;;;;;;;5407543;26;20289;-59
2024/04/26 03:11:19;;;;;;;2.83;2.05;;;;;;;;;;5400763;26;20036;-58
2024/04/26 03:13:44;;;;;;;3.22;2.20;;;;;;;;;;5404404;26;20439;-58
2024/04/26 03:16:10;;;;;;;3.33;2.05;;;;;;;;;;5387766;26;20000;-59
2024/04/26 03:18:35;;;;;;;3.15;2.25;;;;;;;;;;5388165;26;20011;-58
2024/04/26 03:21:01;;;;;;;2.83;2.28;;;;;;;;;;5391293;26;20001;-59
2024/04/26 03:23:26;;;;;;;2.80;2.20;;;;;;;;;;5399308;26;20327;-59
2024/04/26 03:25:52;;;;;;;2.83;2.30;;;;;;;;;;5401680;26;20004;-59
2024/04/26 03:28:17;;;;;;;2.70;2.13;;;;;;;;;;5390862;26;20011;-59
2024/04/26 03:30:42;;;;;;;2.63;2.13;;;;;;;;;;5390636;26;20000;-58
2024/04/26 03:33:08;;;;;;;4.22;2.40;;;;;;;;;;5399984;26;20014;-59
2024/04/26 03:35:33;;;;;;;2.95;2.50;;;;;;;;;;5402423;26;20330;-59
2024/04/26 03:37:58;;;;;;;3.10;2.45;;;;;;;;;;5418698;26;20079;-58
2024/04/26 03:40:24;;;;;;;2.97;2.50;;;;;;;;;;5389241;26;20143;-59
2024/04/26 03:42:49;;;;;;;3.28;2.70;;;;;;;;;;5377753;26;20001;-59
2024/04/26 03:45:14;;;;;;;2.85;2.40;;;;;;;;;;5392196;26;20000;-58
2024/04/26 03:47:40;;;;;;;3.03;2.33;;;;;;;;;;5400842;26;20052;-59
2024/04/26 03:50:05;;;;;;;2.90;2.53;;;;;;;;;;5394185;26;20004;-59
2024/04/26 03:52:30;;;;;;;2.88;2.20;;;;;;;;;;5389097;26;20441;-59
2024/04/26 03:54:56;;;;;;;3.10;2.40;;;;;;;;;;5397367;26;20038;-59
2024/04/26 03:57:21;;;;;;;2.90;2.58;;;;;;;;;;5404796;26;20505;-59
2024/04/26 03:59:46;;;;;;;2.75;2.50;;;;;;;;;;5387282;26;20015;-60
2024/04/26 04:02:12;;;;;;;2.90;2.30;;;;;;;;;;5391912;26;19999;-59
2024/04/26 04:04:37;;;;;;;3.00;2.45;;;;;;;;;;5408882;26;20027;-57
2024/04/26 04:07:02;;;;;;;2.72;2.40;;;;;;;;;;5405609;26;20000;-57
2024/04/26 04:09:28;;;;;;;2.85;2.45;;;;;;;;;;5404534;26;20341;-60
2024/04/26 04:11:53;;;;;;;2.70;2.20;;;;;;;;;;5396640;26;20076;-60
2024/04/26 04:14:18;;;;;;;3.05;2.75;;;;;;;;;;5405385;26;20004;-57
2024/04/26 04:16:44;;;;;;;3.38;2.47;;;;;;;;;;5397298;26;20004;-60
2024/04/26 04:19:09;;;;;;;2.65;2.42;;;;;;;;;;5422266;26;20017;-59
2024/04/26 04:21:34;;;;;;;2.78;2.40;;;;;;;;;;5407705;26;20330;-59
2024/04/26 04:23:59;;;;;;;3.05;2.47;;;;;;;;;;5407326;26;20011;-60
2024/04/26 04:26:25;;;;;;;4.65;2.47;;;;;;;;;;5404477;26;20031;-58
2024/04/26 04:28:51;;;;;;;2.65;2.33;;;;;;;;;;5399230;26;20018;-58
2024/04/26 04:31:16;;;;;;;3.55;2.70;;;;;;;;;;5404893;26;20004;-58
2024/04/26 04:33:42;;;;;;;3.00;2.58;;;;;;;;;;5393376;26;20014;-58
2024/04/26 04:36:07;;;;;;;3.13;2.50;;;;;;;;;;5383995;26;20015;-57
2024/04/26 04:38:32;;;;;;;4.45;2.40;;;;;;;;;;5398896;26;19999;-57
2024/04/26 04:40:58;;;;;;;3.38;2.20;;;;;;;;;;5406077;26;20019;-57
2024/04/26 04:43:23;;;;;;;3.22;2.33;;;;;;;;;;5413436;26;20432;-58
2024/04/26 04:45:49;;;;;;;2.88;2.30;;;;;;;;;;5403454;26;20000;-58
2024/04/26 04:48:14;;;;;;;2.92;2.35;;;;;;;;;;5408842;26;19996;-58
2024/04/26 04:50:39;;;;;;;3.58;2.60;;;;;;;;;;5400227;26;20024;-59
2024/04/26 04:53:05;;;;;;;2.97;2.47;;;;;;;;;;5395774;26;20326;-59
2024/04/26 04:55:30;;;;;;;3.35;2.55;;;;;;;;;;5403507;26;20429;-59
2024/04/26 04:57:55;;;;;;;3.42;2.53;;;;;;;;;;5408067;26;20062;-60
2024/04/26 05:00:21;;;;;;;2.63;2.10;;;;;;;;;;5390222;26;19999;-59
2024/04/26 05:02:46;;;;;;;3.13;2.60;;;;;;;;;;5407776;26;20000;-57
2024/04/26 05:05:11;;;;;;;3.17;2.17;;;;;;;;;;5379477;26;20445;-59
2024/04/26 05:07:37;;;;;;;3.38;2.35;;;;;;;;;;5389876;26;20043;-59
2024/04/26 05:10:03;;;;;;;2.33;2.13;;;;;;;;;;5396313;26;20011;-59
2024/04/26 05:12:28;;;;;;;3.20;2.42;;;;;;;;;;5400045;26;20344;-60
2024/04/26 05:14:54;;;;;;;2.55;2.08;;;;;;;;;;5386916;26;20004;-59
2024/04/26 05:17:19;;;;;;;2.80;2.30;;;;;;;;;;5397688;26;20007;-60
2024/04/26 05:19:45;;;;;;;2.78;2.45;;;;;;;;;;5372863;26;20119;-59
2024/04/26 05:22:11;;;;;;;2.70;2.40;;;;;;;;;;5363498;26;20004;-59
2024/04/26 05:24:37;;;;;;;2.97;2.38;;;;;;;;;;5370759;26;20031;-60
2024/04/26 05:27:02;;;;;;;3.10;2.20;;;;;;;;;;5373695;26;20015;-59
2024/04/26 05:29:27;;;;;;;3.65;2.55;;;;;;;;;;5385905;26;20054;-59
2024/04/26 05:31:52;;;;;;;2.53;2.10;;;;;;;;;;5409853;26;20000;-59
2024/04/26 05:34:18;;;;;;;3.20;2.60;;;;;;;;;;5398986;26;20322;-58
2024/04/26 05:36:43;;;;;;;2.67;2.13;;;;;;;;;;5396183;26;20551;-58
2024/04/26 05:39:08;;;;;;;2.88;2.58;;;;;;;;;;5399157;26;20042;-58
2024/04/26 05:41:34;;;;;;;3.25;2.70;;;;;;;;;;5392376;26;20011;-58
2024/04/26 05:43:59;;;;;;;2.97;2.55;;;;;;;;;;5397957;26;20000;-58
2024/04/26 05:46:25;;;;;;;2.75;2.15;;;;;;;;;;5388914;26;20449;-57
2024/04/26 05:48:50;;;;;;;6.95;4.13;;;;;;;;;;5402290;26;20354;-57
2024/04/26 05:51:17;;;;;;;3.17;2.58;;;;;;;;;;5403942;26;19999;-58
2024/04/26 05:53:42;;;;;;;2.53;2.33;;;;;;;;;;5403559;26;19999;-59
2024/04/26 05:56:07;;;;;;;2.80;2.50;;;;;;;;;;5404013;26;19999;-58
2024/04/26 05:58:34;;;;;;;3.30;2.40;;;;;;;;;;5398956;26;20022;-59
2024/04/26 06:00:59;;;;;;;3.13;2.55;;;;;;;;;;5395780;26;20040;-58
2024/04/26 06:03:25;;;;;;;3.58;2.50;;;;;;;;;;5395312;26;20830;-58
2024/04/26 06:05:51;;;;;;;6.85;3.08;;;;;;;;;;5398239;26;20073;-59
2024/04/26 06:08:17;;;;;;;4.00;3.00;;;;;;;;;;5394507;26;19996;-60
2024/04/26 06:13:26;;;;;;;3.88;2.97;;;;;;;;;;5386728;26;20018;-60
2024/04/26 06:15:51;;;;;;;3.85;3.00;;;;;;;;;;5404462;26;20007;-60
2024/04/26 06:18:17;;;;;;;4.20;2.67;;;;;;;;;;5396607;26;20076;-60
2024/04/26 06:20:42;;;;;;;3.30;2.80;;;;;;;;;;5393037;26;20015;-61
2024/04/26 06:23:07;;;;;;;5.78;2.67;;;;;;;;;;5391439;26;20018;-61
2024/04/26 06:25:33;;;;;;;3.83;2.55;;;;;;;;;;5399654;26;20341;-60
2024/04/26 06:27:58;;;;;;;5.90;2.95;;;;;;;;;;5401574;26;19999;-60
2024/04/26 06:30:24;;;;;;;4.25;2.83;;;;;;;;;;5377790;26;20004;-60
2024/04/26 06:32:49;;;;;;;4.35;3.22;;;;;;;;;;5398624;26;20011;-59
2024/04/26 06:35:14;;;;;;;5.50;3.00;;;;;;;;;;5386348;26;20077;-60
2024/04/26 06:37:40;;;;;;;5.90;3.03;;;;;;;;;;5391142;26;20117;-59
2024/04/26 06:40:05;;;;;;;4.95;3.15;;;;;;;;;;5409273;26;20064;-59
2024/04/26 06:42:30;;;;;;;5.78;3.35;;;;;;;;;;5384992;26;20014;-58
2024/04/26 06:44:56;;;;;;;5.10;3.10;;;;;;;;;;5395092;26;20000;-58
2024/04/26 06:47:21;;;;;;;4.05;3.00;;;;;;;;;;5393621;26;20000;-59
2024/04/26 06:49:47;;;;;;;5.32;2.75;;;;;;;;;;5397196;26;20067;-59
2024/04/26 06:52:12;;;;;;;5.35;3.30;;;;;;;;;;5396155;26;20014;-59
2024/04/26 06:54:37;;;;;;;4.65;3.00;;;;;;;;;;5407453;26;20032;-59
2024/04/26 06:57:02;;;;;;;3.72;2.97;;;;;;;;;;5393323;26;20000;-58
2024/04/26 06:59:28;;;;;;;3.90;3.30;;;;;;;;;;5408954;26;20052;-59
2024/04/26 07:01:55;;;;;;;4.72;3.35;;;;;;;;;;5395689;26;20325;-59
2024/04/26 07:04:21;;;;;;;3.65;3.20;;;;;;;;;;5404304;26;20072;-59
2024/04/26 07:06:46;;;;;;;4.70;3.10;;;;;;;;;;5401905;26;20449;-57
2024/04/26 07:09:11;;;;;;;4.82;3.15;;;;;;;;;;5401111;26;20007;-59
2024/04/26 07:11:37;;;;;;;3.92;2.90;;;;;;;;;;5393685;26;20000;-59
2024/04/26 07:14:04;;;;;;;4.38;3.22;;;;;;;;;;5390284;26;20527;-60
2024/04/26 07:16:29;;;;;;;3.97;3.00;;;;;;;;;;5394815;26;20442;-60
2024/04/26 07:18:54;;;;;;;5.13;3.20;;;;;;;;;;5409322;26;20030;-60
2024/04/26 07:21:20;;;;;;;7.18;3.60;;;;;;;;;;5398600;26;19999;-59
2024/04/26 07:23:45;;;;;;;4.28;3.20;;;;;;;;;;5405463;26;19999;-60
2024/04/26 07:26:10;;;;;;;5.57;3.28;;;;;;;;;;5393668;26;20023;-60
2024/04/26 07:28:36;;;;;;;4.05;2.65;;;;;;;;;;5409417;26;20012;-59
2024/04/26 07:31:01;;;;;;;4.53;3.50;;;;;;;;;;5403324;26;20015;-59
2024/04/26 07:33:26;;;;;;;5.13;3.33;;;;;;;;;;5387061;26;20451;-62
2024/04/26 07:35:52;;;;;;;7.47;3.53;;;;;;;;;;5405071;26;20336;-59
2024/04/26 07:38:17;;;;;;;6.75;3.42;;;;;;;;;;5396302;26;20015;-59
2024/04/26 07:40:42;;;;;;;3.80;3.40;;;;;;;;;;5398917;26;20011;-60
2024/04/26 07:43:08;;;;;;;6.13;4.00;;;;;;;;;;5399480;26;20012;-60
2024/04/26 07:45:33;;;;;;;4.75;3.28;;;;;;;;;;5398250;26;19995;-58
2024/04/26 07:47:58;;;;;;;4.63;3.13;;;;;;;;;;5408210;26;20011;-60
2024/04/26 07:50:24;;;;;;;5.35;3.50;;;;;;;;;;5405926;26;20148;-59
2024/04/26 07:52:49;;;;;;;4.47;3.60;;;;;;;;;;5374671;26;20008;-59
2024/04/26 07:55:14;;;;;;;5.70;3.40;;;;;;;;;;5390079;26;20002;-59
2024/04/26 07:57:40;;;;;;;4.85;3.63;;;;;;;;;;5387570;26;20003;-58
2024/04/26 08:00:05;;;;;;;6.03;3.30;;;;;;;;;;5397432;26;20000;-59
2024/04/26 08:02:31;;;;;;;5.00;3.83;;;;;;;;;;5383489;26;19997;-58
2024/04/26 08:05:01;;;;;;;3.70;3.28;;;;;;;;;;5378027;26;19999;-59
2024/04/26 08:07:26;;;;;;;5.73;4.00;;;;;;;;;;5384766;26;20000;-57
2024/04/26 08:09:51;;;;;;;5.32;3.85;;;;;;;;;;5376460;26;20004;-58
2024/04/26 08:12:17;;;;;;;5.07;3.50;;;;;;;;;;5377460;26;19996;-58
2024/04/26 08:14:42;;;;;;;5.80;3.80;;;;;;;;;;5394491;26;20000;-58
2024/04/26 08:17:07;;;;;;;4.32;3.22;;;;;;;;;;5392843;26;20000;-59
2024/04/26 08:19:33;;;;;;;7.15;6.40;;;;;;;;;;5399846;26;20004;-61
2024/04/26 08:21:58;;;;;;;6.97;5.13;;;;;;;;;;5391128;26;20037;-61
2024/04/26 08:24:23;;;;;;;7.45;5.15;;;;;;;;;;5408093;26;20004;-59
2024/04/26 08:26:48;;;;;;;8.27;5.97;;;;;;;;;;5399248;26;19999;-59
2024/04/26 08:29:14;;;;;;;10.40;6.65;;;;;;;;;;5384931;26;20453;-60
2024/04/26 08:31:39;;;;;;;8.32;6.57;;;;;;;;;;5393169;26;20019;-60
2024/04/26 08:34:04;;;;;;;11.27;7.55;;;;;;;;;;5391661;26;20015;-62
2024/04/26 08:36:30;;;;;;;9.13;6.55;;;;;;;;;;5393033;26;20115;-60
2024/04/26 08:38:56;;;;;;;9.25;6.80;;;;;;;;;;5391248;26;20046;-60
2024/04/26 08:41:22;;;;;;;8.43;6.90;;;;;;;;;;5391647;26;19992;-61
2024/04/26 08:43:48;;;;;;;8.27;6.78;;;;;;;;;;5377684;26;20438;-61
2024/04/26 08:46:13;;;;;;;9.52;6.72;;;;;;;;;;5387620;26;20007;-64
2024/04/26 08:48:38;;;;;;;8.00;5.80;;;;;;;;;;5384641;26;20032;-60
2024/04/26 08:51:04;;;;;;;7.85;6.10;;;;;;;;;;5389745;26;19996;-60
2024/04/26 08:53:29;;;;;;;8.95;5.97;;;;;;;;;;5401193;26;20011;-63
2024/04/26 08:55:54;;;;;;;7.25;5.93;;;;;;;;;;5383895;26;19996;-61
2024/04/26 08:58:20;;;;;;;9.25;6.18;;;;;;;;;;5381679;26;20050;-59
2024/04/26 09:00:45;;;;;;;6.43;5.53;;;;;;;;;;5398310;26;19995;-58
2024/04/26 09:03:11;;;;;;;6.65;5.45;;;;;;;;;;5395651;26;20019;-61
2024/04/26 09:05:38;;;;;;;7.38;5.93;;;;;;;;;;5390352;26;20001;-61
2024/04/26 09:08:03;;;;;;;9.55;6.75;;;;;;;;;;5398653;26;20139;-63
2024/04/26 09:10:29;;;;;;;7.63;5.93;;;;;;;;;;5394637;26;20291;-62
2024/04/26 09:12:55;;;;;;;7.45;6.15;;;;;;;;;;5398767;26;20000;-64
2024/04/26 09:15:20;;;;;;;7.50;5.13;;;;;;;;;;5387904;26;19997;-64
2024/04/26 09:17:46;;;;;;;6.88;5.25;;;;;;;;;;5396512;26;20000;-62
2024/04/26 09:20:11;;;;;;;7.90;5.63;;;;;;;;;;5406295;26;20003;-63
2024/04/26 09:22:38;;;;;;;7.40;5.10;;;;;;;;;;5382486;26;20012;-63
2024/04/26 09:25:06;;;;;;;7.00;5.18;;;;;;;;;;5401205;26;20279;-62
2024/04/26 09:27:32;;;;;;;6.55;4.60;;;;;;;;;;5398503;26;20011;-63
2024/04/26 09:29:57;;;;;;;7.55;5.20;;;;;;;;;;5391251;26;20080;-63
2024/04/26 09:32:23;;;;;;;6.57;5.10;;;;;;;;;;5397510;26;20007;-64
2024/04/26 09:34:54;;;;;;;6.43;4.97;;;;;;;;;;5387201;26;20000;-63
2024/04/26 09:37:19;;;;;;;6.85;4.93;;;;;;;;;;5403022;26;20015;-64
2024/04/26 09:39:46;;;;;;;6.40;4.70;;;;;;;;;;5396966;26;20031;-63
2024/04/26 09:42:12;;;;;;;7.25;4.47;;;;;;;;;;5401825;26;20030;-65
2024/04/26 09:44:38;;;;;;;7.07;5.65;;;;;;;;;;5407407;26;20340;-65
2024/04/26 09:47:03;;;;;;;9.88;5.05;;;;;;;;;;5397602;26;20004;-66
2024/04/26 09:49:29;;;;;;;8.23;5.53;;;;;;;;;;5408576;26;20324;-63
2024/04/26 09:51:55;;;;;;;8.73;5.35;;;;;;;;;;5393135;26;20047;-66
2024/04/26 09:54:20;;;;;;;6.63;5.18;;;;;;;;;;5410048;26;20000;-65
2024/04/26 09:56:45;;;;;;;7.88;5.07;;;;;;;;;;5397523;26;20030;-63
2024/04/26 09:59:11;;;;;;;6.82;4.65;;;;;;;;;;5405844;26;20448;-61
2024/04/26 10:01:36;;;;;;;6.80;5.03;;;;;;;;;;5409187;26;20012;-62
2024/04/26 10:04:02;;;;;;;6.00;4.90;;;;;;;;;;5391926;26;20036;-63
2024/04/26 10:06:37;;;;;;;8.18;5.05;;;;;;;;;;5393243;26;20000;-63
2024/04/26 10:09:06;;;;;;;7.07;4.40;;;;;;;;;;5390084;26;20000;-61
2024/04/26 10:11:31;;;;;;;7.17;4.83;;;;;;;;;;5384626;26;20396;-59
2024/04/26 10:13:58;;;;;;;6.05;4.80;;;;;;;;;;5394941;26;20294;-61
2024/04/26 10:16:24;;;;;;;6.10;5.30;;;;;;;;;;5390602;26;20093;-61
2024/04/26 10:18:50;;;;;;;6.72;4.43;;;;;;;;;;5400554;26;20238;-59
2024/04/26 10:21:22;;;;;;;6.63;4.43;;;;;;;;;;5392104;26;20337;-61
2024/04/26 10:23:57;;;;;;;6.38;4.75;;;;;;;;;;5396587;26;20098;-61
2024/04/26 10:26:23;;;;;;;6.90;4.45;;;;;;;;;;5409510;26;20421;-60
2024/04/26 10:28:48;;;;;;;6.75;4.07;;;;;;;;;;5408605;26;20010;-65
2024/04/26 10:31:13;;;;;;;5.60;4.30;;;;;;;;;;5409633;26;19996;-63
2024/04/26 10:33:38;;;;;;;6.72;4.32;;;;;;;;;;5393811;26;20014;-64
2024/04/26 10:36:06;;;;;;;6.15;4.20;;;;;;;;;;5405504;26;19999;-65
2024/04/26 10:38:45;;;;;;;5.60;4.07;;;;;;;;;;5390188;26;20073;-61
2024/04/26 10:41:11;;;;;;;6.07;4.07;;;;;;;;;;5405180;26;20000;-61
2024/04/26 10:43:36;;;;;;;5.00;4.20;;;;;;;;;;5396737;26;20006;-58
2024/04/26 10:46:01;;;;;;;5.45;4.32;;;;;;;;;;5408552;26;20437;-61
2024/04/26 10:48:33;;;;;;;5.18;3.80;;;;;;;;;;5398463;26;20011;-59
2024/04/26 10:51:03;;;;;;;6.10;4.25;;;;;;;;;;5408152;26;20007;-64
2024/04/26 10:53:28;;;;;;;4.15;3.67;;;;;;;;;;5405476;26;20019;-64
2024/04/26 10:55:53;;;;;;;5.22;4.15;;;;;;;;;;5398282;26;19999;-60
2024/04/26 10:58:19;;;;;;;5.15;3.85;;;;;;;;;;5406301;26;20272;-61
2024/04/26 11:00:44;;;;;;;5.05;3.83;;;;;;;;;;5407745;26;19999;-64
2024/04/26 11:03:10;;;;;;;4.93;4.00;;;;;;;;;;5391955;26;20461;-62
2024/04/26 11:05:43;;;;;;;4.97;4.10;;;;;;;;;;5395890;26;20003;-68
2024/04/26 11:08:08;;;;;;;5.07;4.28;;;;;;;;;;5397181;26;20014;-61
2024/04/26 11:10:33;;;;;;;6.32;4.10;;;;;;;;;;5408996;26;20008;-68
2024/04/26 11:12:59;;;;;;;6.07;3.88;;;;;;;;;;5391327;26;20453;-61
2024/04/26 11:15:24;;;;;;;4.47;3.63;;;;;;;;;;5402147;26;20419;-61
2024/04/26 11:17:50;;;;;;;4.90;3.80;;;;;;;;;;5397761;26;20007;-64
2024/04/26 11:20:15;;;;;;;4.93;3.70;;;;;;;;;;5397909;26;20015;-61
2024/04/26 11:22:40;;;;;;;5.13;4.03;;;;;;;;;;5402821;26;20043;-58
2024/04/26 11:25:06;;;;;;;4.90;3.65;;;;;;;;;;5405035;26;20129;-60
2024/04/26 11:27:31;;;;;;;5.10;4.00;;;;;;;;;;5400154;26;20015;-59
2024/04/26 11:29:56;;;;;;;4.85;3.88;;;;;;;;;;5396169;26;20465;-62
2024/04/26 11:32:22;;;;;;;4.97;3.92;;;;;;;;;;5407856;26;20010;-64
2024/04/26 11:34:47;;;;;;;4.60;3.45;;;;;;;;;;5408340;26;20084;-60
2024/04/26 11:37:13;;;;;;;4.47;3.55;;;;;;;;;;5385736;26;20010;-62
2024/04/26 11:39:38;;;;;;;4.85;3.85;;;;;;;;;;5384363;26;20015;-66
2024/04/26 11:42:03;;;;;;;5.15;3.85;;;;;;;;;;5409197;26;20010;-65
2024/04/26 11:44:29;;;;;;;4.85;3.75;;;;;;;;;;5384829;26;20000;-61
2024/04/26 11:46:54;;;;;;;6.07;4.00;;;;;;;;;;5391362;26;20478;-64
2024/04/26 11:49:20;;;;;;;4.60;3.67;;;;;;;;;;5408384;26;20007;-64
2024/04/26 11:51:47;;;;;;;6.13;3.80;;;;;;;;;;5408739;26;20004;-60
2024/04/26 11:54:12;;;;;;;5.45;3.08;;;;;;;;;;5394406;26;20016;-61
2024/04/26 11:56:37;;;;;;;4.68;3.20;;;;;;;;;;5383225;26;20445;-61
2024/04/26 11:59:03;;;;;;;5.13;3.22;;;;;;;;;;5405295;26;20015;-61
2024/04/26 12:01:28;;;;;;;4.22;2.90;;;;;;;;;;5399980;26;20004;-62
2024/04/26 12:03:54;;;;;;;3.75;2.83;;;;;;;;;;5378372;26;20099;-62
2024/04/26 12:06:21;;;;;;;4.30;3.33;;;;;;;;;;5373143;26;20012;-62
2024/04/26 12:08:47;;;;;;;4.45;3.30;;;;;;;;;;5401961;26;20003;-63
2024/04/26 12:11:13;;;;;;;5.38;3.63;;;;;;;;;;5407608;26;20353;-61
2024/04/26 12:13:39;;;;;;;5.32;3.83;;;;;;;;;;5407197;26;20011;-60
2024/04/26 12:16:05;;;;;;;4.32;3.45;;;;;;;;;;5389983;26;20334;-61
2024/04/26 12:18:32;;;;;;;5.35;3.75;;;;;;;;;;5397234;26;20019;-60
2024/04/26 12:20:57;;;;;;;4.20;3.17;;;;;;;;;;5410775;26;20015;-61
2024/04/26 12:23:22;;;;;;;4.45;3.42;;;;;;;;;;5410311;26;20000;-63
2024/04/26 12:25:48;;;;;;;4.40;3.00;;;;;;;;;;5411192;26;20053;-60
2024/04/26 12:28:13;;;;;;;3.58;2.85;;;;;;;;;;5410411;26;20014;-58
2024/04/26 12:30:38;;;;;;;4.57;2.92;;;;;;;;;;5405643;26;20560;-60
2024/04/26 12:33:04;;;;;;;4.00;2.90;;;;;;;;;;5381157;26;20007;-63
2024/04/26 12:35:33;;;;;;;3.75;2.90;;;;;;;;;;5400428;26;20394;-62
2024/04/26 12:37:59;;;;;;;4.00;3.03;;;;;;;;;;5406951;26;20099;-62
2024/04/26 12:40:28;;;;;;;4.63;3.15;;;;;;;;;;5399160;26;20007;-66
2024/04/26 12:42:54;;;;;;;4.47;2.70;;;;;;;;;;5410112;26;20007;-66
2024/04/26 12:45:21;;;;;;;4.53;2.88;;;;;;;;;;5394630;26;20355;-61
2024/04/26 12:47:46;;;;;;;5.00;3.05;;;;;;;;;;5409461;26;20430;-60
2024/04/26 12:50:11;;;;;;;3.92;3.08;;;;;;;;;;5409776;26;19999;-61
2024/04/26 12:52:36;;;;;;;2.90;2.33;;;;;;;;;;5411485;26;20007;-61
2024/04/26 12:55:02;;;;;;;6.32;2.88;;;;;;;;;;5406832;26;20433;-62
2024/04/26 12:57:27;;;;;;;4.53;2.90;;;;;;;;;;5382099;26;20433;-64
2024/04/26 12:59:53;;;;;;;3.28;2.65;;;;;;;;;;5399167;26;20086;-60
2024/04/26 13:02:18;;;;;;;4.03;3.00;;;;;;;;;;5408259;26;20015;-61
2024/04/26 13:04:43;;;;;;;4.55;2.92;;;;;;;;;;5403082;26;20008;-61
2024/04/26 13:07:09;;;;;;;3.88;2.85;;;;;;;;;;5408286;26;20334;-62
2024/04/26 13:09:35;;;;;;;3.97;2.80;;;;;;;;;;5410094;26;20015;-68
2024/04/26 13:12:01;;;;;;;17.77;4.15;;;;;;;;;;5388313;26;20081;-68
2024/04/26 13:14:26;;;;;;;4.40;3.00;;;;;;;;;;5394776;26;20047;-63
2024/04/26 13:16:51;;;;;;;10.13;3.20;;;;;;;;;;5384086;26;20004;-68
2024/04/26 13:19:17;;;;;;;15.88;3.00;;;;;;;;;;5400537;26;20318;-65
2024/04/26 13:21:43;;;;;;;6.90;3.50;;;;;;;;;;5405279;26;20430;-66
2024/04/26 13:24:08;;;;;;;8.38;3.08;;;;;;;;;;5397739;26;20000;-68
2024/04/26 13:26:34;;;;;;;5.88;2.70;;;;;;;;;;5392043;26;20000;-66
2024/04/26 13:28:59;;;;;;;5.68;2.85;;;;;;;;;;5402014;26;20077;-62
2024/04/26 13:31:24;;;;;;;4.95;2.80;;;;;;;;;;5408225;26;20003;-62
2024/04/26 13:33:50;;;;;;;4.35;2.83;;;;;;;;;;5385541;26;20323;-63
2024/04/26 13:36:15;;;;;;;7.05;2.33;;;;;;;;;;5409693;26;20473;-62
2024/04/26 13:38:40;;;;;;;4.10;2.53;;;;;;;;;;5408653;26;20018;-66
2024/04/26 13:41:06;;;;;;;5.60;2.47;;;;;;;;;;5389553;26;20333;-62
2024/04/26 13:43:32;;;;;;;3.53;2.47;;;;;;;;;;5400955;26;20004;-63
2024/04/26 13:45:59;;;;;;;3.80;2.25;;;;;;;;;;5403895;26;20010;-63
2024/04/26 13:48:26;;;;;;;4.72;2.92;;;;;;;;;;5410585;26;20114;-65
2024/04/26 13:50:52;;;;;;;3.47;2.38;;;;;;;;;;5410131;26;20015;-63
2024/04/26 13:53:17;;;;;;;2.88;2.45;;;;;;;;;;5403626;26;20027;-65
2024/04/26 13:55:43;;;;;;;2.80;1.95;;;;;;;;;;5398881;26;20019;-65
2024/04/26 13:58:08;;;;;;;3.40;2.50;;;;;;;;;;5392727;26;20336;-64
2024/04/26 14:00:33;;;;;;;3.50;2.10;;;;;;;;;;5402864;26;20794;-60
2024/04/26 14:02:58;;;;;;;3.30;2.25;;;;;;;;;;5398785;26;20049;-63
2024/04/26 14:05:24;;;;;;;3.13;2.38;;;;;;;;;;5391582;26;20004;-60
2024/04/26 14:07:49;;;;;;;4.20;2.20;;;;;;;;;;5386464;26;20024;-62
2024/04/26 14:10:15;;;;;;;4.47;2.50;;;;;;;;;;5411646;26;20003;-63
2024/04/26 14:12:40;;;;;;;3.22;2.30;;;;;;;;;;5403783;26;20018;-61
2024/04/26 14:15:06;;;;;;;4.68;2.38;;;;;;;;;;5412980;26;20000;-58
2024/04/26 14:17:31;;;;;;;2.90;2.03;;;;;;;;;;5398201;26;20030;-65
2024/04/26 14:19:58;;;;;;;2.72;2.17;;;;;;;;;;5407104;26;19999;-65
2024/04/26 14:22:23;;;;;;;3.80;2.47;;;;;;;;;;5391572;26;19999;-62
2024/04/26 14:24:49;;;;;;;5.07;2.40;;;;;;;;;;5387917;26;21024;-62
2024/04/26 14:27:19;;;;;;;4.72;2.45;;;;;;;;;;5394774;26;20018;-65
2024/04/26 14:29:44;;;;;;;3.00;2.25;;;;;;;;;;5391378;26;21613;-67
2024/04/26 14:32:10;;;;;;;3.38;2.10;;;;;;;;;;5390764;26;20019;-66
2024/04/26 14:34:35;;;;;;;3.53;2.35;;;;;;;;;;5383354;26;19999;-63
2024/04/26 14:37:00;;;;;;;3.70;2.42;;;;;;;;;;5388069;26;20007;-66